sensor_id;sensor_type;location;lat;lon;timestamp;P1;durP1;ratioP1;P2;durP2;ratioP2
50363;SDS011;36272;59.400;17.982;2023-04-22T00:01:14;34.72;;;5.88;;
50363;SDS011;36272;59.400;17.982;2023-04-22T00:06:17;34.05;;;5.53;;
50363;SDS011;36272;59.400;17.982;2023-04-22T00:11:19;33.33;;;4.75;;
50363;SDS011;36272;59.400;17.982;2023-04-22T00:16:21;31.92;;;5.38;;
50363;SDS011;36272;59.400;17.982;2023-04-22T00:21:22;41.55;;;4.78;;
50363;SDS011;36272;59.400;17.982;2023-04-22T00:26:24;27.17;;;5.05;;
50363;SDS011;36272;59.400;17.982;2023-04-22T00:31:26;33.50;;;4.85;;
50363;SDS011;36272;59.400;17.982;2023-04-22T00:36:28;31.55;;;4.63;;
50363;SDS011;36272;59.400;17.982;2023-04-22T00:41:29;18.30;;;4.15;;
50363;SDS011;36272;59.400;17.982;2023-04-22T00:46:32;32.28;;;5.20;;
50363;SDS011;36272;59.400;17.982;2023-04-22T00:51:34;24.95;;;4.47;;
50363;SDS011;36272;59.400;17.982;2023-04-22T00:56:36;26.52;;;4.10;;
50363;SDS011;36272;59.400;17.982;2023-04-22T01:01:38;25.05;;;5.10;;
50363;SDS011;36272;59.400;17.982;2023-04-22T01:06:40;23.25;;;4.80;;
50363;SDS011;36272;59.400;17.982;2023-04-22T01:11:44;27.00;;;4.13;;
50363;SDS011;36272;59.400;17.982;2023-04-22T01:16:47;32.38;;;5.43;;
50363;SDS011;36272;59.400;17.982;2023-04-22T01:21:50;32.10;;;4.47;;
50363;SDS011;36272;59.400;17.982;2023-04-22T01:26:53;24.13;;;4.68;;
50363;SDS011;36272;59.400;17.982;2023-04-22T01:31:55;24.33;;;4.72;;
50363;SDS011;36272;59.400;17.982;2023-04-22T01:36:57;29.63;;;5.35;;
50363;SDS011;36272;59.400;17.982;2023-04-22T01:41:59;31.10;;;5.07;;
50363;SDS011;36272;59.400;17.982;2023-04-22T01:47:02;30.98;;;5.80;;
50363;SDS011;36272;59.400;17.982;2023-04-22T01:52:04;32.40;;;5.45;;
50363;SDS011;36272;59.400;17.982;2023-04-22T01:57:11;34.42;;;5.80;;
50363;SDS011;36272;59.400;17.982;2023-04-22T02:02:14;24.80;;;4.65;;
50363;SDS011;36272;59.400;17.982;2023-04-22T02:07:16;19.40;;;5.20;;
50363;SDS011;36272;59.400;17.982;2023-04-22T02:12:20;140.32;;;8.88;;
50363;SDS011;36272;59.400;17.982;2023-04-22T02:17:21;34.33;;;5.32;;
50363;SDS011;36272;59.400;17.982;2023-04-22T02:22:23;28.42;;;4.63;;
50363;SDS011;36272;59.400;17.982;2023-04-22T02:27:25;13.80;;;4.07;;
50363;SDS011;36272;59.400;17.982;2023-04-22T02:32:31;24.08;;;4.50;;
50363;SDS011;36272;59.400;17.982;2023-04-22T02:37:33;27.38;;;5.05;;
50363;SDS011;36272;59.400;17.982;2023-04-22T02:42:35;21.15;;;4.93;;
50363;SDS011;36272;59.400;17.982;2023-04-22T02:47:36;27.40;;;4.80;;
50363;SDS011;36272;59.400;17.982;2023-04-22T02:52:38;18.85;;;4.68;;
50363;SDS011;36272;59.400;17.982;2023-04-22T02:57:40;22.60;;;4.57;;
50363;SDS011;36272;59.400;17.982;2023-04-22T03:02:41;16.60;;;4.10;;
50363;SDS011;36272;59.400;17.982;2023-04-22T03:07:43;10.85;;;3.80;;
50363;SDS011;36272;59.400;17.982;2023-04-22T03:12:45;12.57;;;4.30;;
50363;SDS011;36272;59.400;17.982;2023-04-22T03:17:46;11.38;;;4.32;;
50363;SDS011;36272;59.400;17.982;2023-04-22T03:22:48;18.50;;;4.50;;
50363;SDS011;36272;59.400;17.982;2023-04-22T03:27:50;11.15;;;4.13;;
50363;SDS011;36272;59.400;17.982;2023-04-22T03:32:51;18.15;;;4.13;;
50363;SDS011;36272;59.400;17.982;2023-04-22T03:37:53;17.13;;;4.43;;
50363;SDS011;36272;59.400;17.982;2023-04-22T03:42:55;10.63;;;4.15;;
50363;SDS011;36272;59.400;17.982;2023-04-22T03:47:57;8.70;;;4.25;;
50363;SDS011;36272;59.400;17.982;2023-04-22T03:52:58;11.70;;;3.75;;
50363;SDS011;36272;59.400;17.982;2023-04-22T03:58:00;7.13;;;3.40;;
50363;SDS011;36272;59.400;17.982;2023-04-22T04:03:01;7.60;;;3.60;;
50363;SDS011;36272;59.400;17.982;2023-04-22T04:08:03;8.95;;;3.75;;
50363;SDS011;36272;59.400;17.982;2023-04-22T04:13:05;6.47;;;3.40;;
50363;SDS011;36272;59.400;17.982;2023-04-22T04:18:06;5.78;;;3.53;;
50363;SDS011;36272;59.400;17.982;2023-04-22T04:23:09;7.43;;;3.13;;
50363;SDS011;36272;59.400;17.982;2023-04-22T04:28:11;7.35;;;3.95;;
50363;SDS011;36272;59.400;17.982;2023-04-22T04:33:14;17.02;;;3.85;;
50363;SDS011;36272;59.400;17.982;2023-04-22T04:38:17;7.68;;;3.60;;
50363;SDS011;36272;59.400;17.982;2023-04-22T04:43:19;7.32;;;3.53;;
50363;SDS011;36272;59.400;17.982;2023-04-22T04:48:21;7.22;;;3.60;;
50363;SDS011;36272;59.400;17.982;2023-04-22T04:53:25;7.78;;;3.22;;
50363;SDS011;36272;59.400;17.982;2023-04-22T04:58:26;8.80;;;3.40;;
50363;SDS011;36272;59.400;17.982;2023-04-22T05:03:28;6.72;;;3.47;;
50363;SDS011;36272;59.400;17.982;2023-04-22T05:08:30;8.30;;;3.65;;
50363;SDS011;36272;59.400;17.982;2023-04-22T05:13:37;11.20;;;4.00;;
50363;SDS011;36272;59.400;17.982;2023-04-22T05:18:38;32.20;;;4.30;;
50363;SDS011;36272;59.400;17.982;2023-04-22T05:23:43;9.10;;;3.80;;
50363;SDS011;36272;59.400;17.982;2023-04-22T05:28:44;6.13;;;3.50;;
50363;SDS011;36272;59.400;17.982;2023-04-22T05:33:48;8.00;;;3.55;;
50363;SDS011;36272;59.400;17.982;2023-04-22T05:38:51;17.35;;;4.00;;
50363;SDS011;36272;59.400;17.982;2023-04-22T05:43:52;6.45;;;3.53;;
50363;SDS011;36272;59.400;17.982;2023-04-22T05:48:54;15.30;;;3.60;;
50363;SDS011;36272;59.400;17.982;2023-04-22T05:53:56;7.70;;;3.58;;
50363;SDS011;36272;59.400;17.982;2023-04-22T05:58:58;8.88;;;3.35;;
50363;SDS011;36272;59.400;17.982;2023-04-22T06:04:00;11.02;;;3.45;;
50363;SDS011;36272;59.400;17.982;2023-04-22T06:09:02;8.70;;;3.53;;
50363;SDS011;36272;59.400;17.982;2023-04-22T06:14:04;9.13;;;3.60;;
50363;SDS011;36272;59.400;17.982;2023-04-22T06:19:05;6.10;;;3.28;;
50363;SDS011;36272;59.400;17.982;2023-04-22T06:24:07;6.80;;;3.33;;
50363;SDS011;36272;59.400;17.982;2023-04-22T06:29:10;9.05;;;3.33;;
50363;SDS011;36272;59.400;17.982;2023-04-22T06:34:12;11.10;;;3.42;;
50363;SDS011;36272;59.400;17.982;2023-04-22T06:39:13;12.95;;;3.10;;
50363;SDS011;36272;59.400;17.982;2023-04-22T06:44:15;10.15;;;3.75;;
50363;SDS011;36272;59.400;17.982;2023-04-22T06:49:17;9.02;;;3.08;;
50363;SDS011;36272;59.400;17.982;2023-04-22T06:54:18;9.80;;;2.88;;
50363;SDS011;36272;59.400;17.982;2023-04-22T06:59:20;12.05;;;2.80;;
50363;SDS011;36272;59.400;17.982;2023-04-22T07:04:22;11.48;;;2.88;;
50363;SDS011;36272;59.400;17.982;2023-04-22T07:09:23;11.35;;;2.92;;
50363;SDS011;36272;59.400;17.982;2023-04-22T07:14:25;10.27;;;3.22;;
50363;SDS011;36272;59.400;17.982;2023-04-22T07:19:27;16.05;;;2.92;;
50363;SDS011;36272;59.400;17.982;2023-04-22T07:24:30;11.10;;;2.70;;
50363;SDS011;36272;59.400;17.982;2023-04-22T07:29:31;11.50;;;2.88;;
50363;SDS011;36272;59.400;17.982;2023-04-22T07:34:33;19.15;;;2.42;;
50363;SDS011;36272;59.400;17.982;2023-04-22T07:39:35;9.90;;;2.78;;
50363;SDS011;36272;59.400;17.982;2023-04-22T07:44:37;7.65;;;2.40;;
50363;SDS011;36272;59.400;17.982;2023-04-22T07:49:38;8.35;;;2.40;;
50363;SDS011;36272;59.400;17.982;2023-04-22T07:54:40;10.07;;;2.30;;
50363;SDS011;36272;59.400;17.982;2023-04-22T07:59:42;7.82;;;2.20;;
50363;SDS011;36272;59.400;17.982;2023-04-22T08:04:44;7.68;;;2.20;;
50363;SDS011;36272;59.400;17.982;2023-04-22T08:09:46;6.22;;;2.13;;
50363;SDS011;36272;59.400;17.982;2023-04-22T08:14:47;11.55;;;2.10;;
50363;SDS011;36272;59.400;17.982;2023-04-22T08:19:49;8.02;;;2.20;;
50363;SDS011;36272;59.400;17.982;2023-04-22T08:24:51;20.77;;;2.60;;
50363;SDS011;36272;59.400;17.982;2023-04-22T08:29:52;12.43;;;2.20;;
50363;SDS011;36272;59.400;17.982;2023-04-22T08:34:54;7.53;;;1.85;;
50363;SDS011;36272;59.400;17.982;2023-04-22T08:39:55;12.20;;;2.08;;
50363;SDS011;36272;59.400;17.982;2023-04-22T08:44:57;3.90;;;1.63;;
50363;SDS011;36272;59.400;17.982;2023-04-22T08:50:00;12.82;;;2.10;;
50363;SDS011;36272;59.400;17.982;2023-04-22T08:55:03;5.22;;;1.80;;
50363;SDS011;36272;59.400;17.982;2023-04-22T09:00:06;7.50;;;1.90;;
50363;SDS011;36272;59.400;17.982;2023-04-22T09:05:11;5.77;;;2.20;;
50363;SDS011;36272;59.400;17.982;2023-04-22T09:10:14;4.63;;;1.90;;
50363;SDS011;36272;59.400;17.982;2023-04-22T09:15:16;5.07;;;1.63;;
50363;SDS011;36272;59.400;17.982;2023-04-22T09:20:18;6.80;;;1.98;;
50363;SDS011;36272;59.400;17.982;2023-04-22T09:25:20;5.35;;;1.48;;
50363;SDS011;36272;59.400;17.982;2023-04-22T09:30:25;9.45;;;1.75;;
50363;SDS011;36272;59.400;17.982;2023-04-22T09:35:35;3.70;;;1.70;;
50363;SDS011;36272;59.400;17.982;2023-04-22T09:40:41;4.03;;;1.40;;
50363;SDS011;36272;59.400;17.982;2023-04-22T09:45:44;5.72;;;1.50;;
50363;SDS011;36272;59.400;17.982;2023-04-22T09:50:46;4.43;;;1.48;;
50363;SDS011;36272;59.400;17.982;2023-04-22T09:55:50;4.30;;;1.50;;
50363;SDS011;36272;59.400;17.982;2023-04-22T10:00:54;4.45;;;1.67;;
50363;SDS011;36272;59.400;17.982;2023-04-22T10:05:57;4.00;;;1.55;;
50363;SDS011;36272;59.400;17.982;2023-04-22T10:10:59;3.22;;;1.55;;
50363;SDS011;36272;59.400;17.982;2023-04-22T10:16:01;21.08;;;2.40;;
50363;SDS011;36272;59.400;17.982;2023-04-22T10:21:03;10.77;;;1.75;;
50363;SDS011;36272;59.400;17.982;2023-04-22T10:26:06;12.25;;;1.98;;
50363;SDS011;36272;59.400;17.982;2023-04-22T10:31:29;4.75;;;1.67;;
50363;SDS011;36272;59.400;17.982;2023-04-22T10:36:29;3.45;;;1.02;;
50363;SDS011;36272;59.400;17.982;2023-04-22T10:41:35;3.60;;;1.13;;
50363;SDS011;36272;59.400;17.982;2023-04-22T10:52:03;4.32;;;1.10;;
50363;SDS011;36272;59.400;17.982;2023-04-22T10:57:40;6.50;;;1.50;;
50363;SDS011;36272;59.400;17.982;2023-04-22T11:02:45;7.28;;;1.58;;
50363;SDS011;36272;59.400;17.982;2023-04-22T11:07:52;4.82;;;1.77;;
50363;SDS011;36272;59.400;17.982;2023-04-22T11:12:56;9.07;;;2.25;;
50363;SDS011;36272;59.400;17.982;2023-04-22T11:17:58;5.78;;;1.42;;
50363;SDS011;36272;59.400;17.982;2023-04-22T11:23:00;6.00;;;1.42;;
50363;SDS011;36272;59.400;17.982;2023-04-22T11:28:03;4.50;;;1.42;;
50363;SDS011;36272;59.400;17.982;2023-04-22T11:33:04;7.35;;;1.33;;
50363;SDS011;36272;59.400;17.982;2023-04-22T11:38:08;3.30;;;1.33;;
50363;SDS011;36272;59.400;17.982;2023-04-22T11:43:10;9.32;;;1.65;;
50363;SDS011;36272;59.400;17.982;2023-04-22T11:48:15;6.93;;;1.25;;
50363;SDS011;36272;59.400;17.982;2023-04-22T11:53:17;4.90;;;1.60;;
50363;SDS011;36272;59.400;17.982;2023-04-22T11:58:25;4.95;;;1.48;;
50363;SDS011;36272;59.400;17.982;2023-04-22T12:03:29;3.00;;;1.20;;
50363;SDS011;36272;59.400;17.982;2023-04-22T12:08:35;5.72;;;1.23;;
50363;SDS011;36272;59.400;17.982;2023-04-22T12:13:42;3.35;;;1.23;;
50363;SDS011;36272;59.400;17.982;2023-04-22T12:18:50;3.95;;;1.23;;
50363;SDS011;36272;59.400;17.982;2023-04-22T12:24:02;6.68;;;1.30;;
50363;SDS011;36272;59.400;17.982;2023-04-22T12:29:08;8.27;;;1.37;;
50363;SDS011;36272;59.400;17.982;2023-04-22T12:34:10;4.60;;;1.40;;
50363;SDS011;36272;59.400;17.982;2023-04-22T12:39:12;6.28;;;1.40;;
50363;SDS011;36272;59.400;17.982;2023-04-22T12:44:15;4.95;;;1.38;;
50363;SDS011;36272;59.400;17.982;2023-04-22T12:49:17;4.68;;;1.60;;
50363;SDS011;36272;59.400;17.982;2023-04-22T12:54:21;2.38;;;1.20;;
50363;SDS011;36272;59.400;17.982;2023-04-22T12:59:25;7.97;;;1.70;;
50363;SDS011;36272;59.400;17.982;2023-04-22T13:04:39;6.32;;;1.48;;
50363;SDS011;36272;59.400;17.982;2023-04-22T13:09:46;5.45;;;1.42;;
50363;SDS011;36272;59.400;17.982;2023-04-22T13:14:55;24.52;;;3.33;;
50363;SDS011;36272;59.400;17.982;2023-04-22T13:20:03;2.47;;;1.33;;
50363;SDS011;36272;59.400;17.982;2023-04-22T13:25:09;5.82;;;1.27;;
50363;SDS011;36272;59.400;17.982;2023-04-22T13:30:11;7.60;;;1.48;;
50363;SDS011;36272;59.400;17.982;2023-04-22T13:35:13;7.37;;;1.93;;
50363;SDS011;36272;59.400;17.982;2023-04-22T13:40:14;3.70;;;1.58;;
50363;SDS011;36272;59.400;17.982;2023-04-22T13:45:16;8.45;;;1.35;;
50363;SDS011;36272;59.400;17.982;2023-04-22T13:50:18;14.70;;;1.52;;
50363;SDS011;36272;59.400;17.982;2023-04-22T13:55:20;8.15;;;1.40;;
50363;SDS011;36272;59.400;17.982;2023-04-22T14:00:21;8.98;;;2.08;;
50363;SDS011;36272;59.400;17.982;2023-04-22T14:05:26;3.97;;;1.40;;
50363;SDS011;36272;59.400;17.982;2023-04-22T14:10:31;4.70;;;1.55;;
50363;SDS011;36272;59.400;17.982;2023-04-22T14:15:32;6.55;;;1.40;;
50363;SDS011;36272;59.400;17.982;2023-04-22T14:20:34;6.03;;;1.70;;
50363;SDS011;36272;59.400;17.982;2023-04-22T14:25:36;4.78;;;1.35;;
50363;SDS011;36272;59.400;17.982;2023-04-22T14:30:38;7.18;;;1.60;;
50363;SDS011;36272;59.400;17.982;2023-04-22T14:35:40;8.18;;;1.70;;
50363;SDS011;36272;59.400;17.982;2023-04-22T14:40:41;6.88;;;1.83;;
50363;SDS011;36272;59.400;17.982;2023-04-22T14:45:43;5.65;;;1.80;;
50363;SDS011;36272;59.400;17.982;2023-04-22T14:50:48;34.60;;;3.05;;
50363;SDS011;36272;59.400;17.982;2023-04-22T14:55:50;8.10;;;1.77;;
50363;SDS011;36272;59.400;17.982;2023-04-22T15:00:52;9.82;;;1.60;;
50363;SDS011;36272;59.400;17.982;2023-04-22T15:05:54;8.88;;;1.17;;
50363;SDS011;36272;59.400;17.982;2023-04-22T15:10:56;8.32;;;1.90;;
50363;SDS011;36272;59.400;17.982;2023-04-22T15:15:59;4.05;;;1.73;;
50363;SDS011;36272;59.400;17.982;2023-04-22T15:21:01;7.65;;;1.55;;
50363;SDS011;36272;59.400;17.982;2023-04-22T15:26:03;5.75;;;1.40;;
50363;SDS011;36272;59.400;17.982;2023-04-22T15:31:05;6.53;;;1.60;;
50363;SDS011;36272;59.400;17.982;2023-04-22T15:36:07;7.05;;;1.60;;
50363;SDS011;36272;59.400;17.982;2023-04-22T15:41:09;4.82;;;1.40;;
50363;SDS011;36272;59.400;17.982;2023-04-22T15:46:11;5.10;;;1.40;;
50363;SDS011;36272;59.400;17.982;2023-04-22T15:51:15;7.57;;;1.50;;
50363;SDS011;36272;59.400;17.982;2023-04-22T15:56:17;4.50;;;1.25;;
50363;SDS011;36272;59.400;17.982;2023-04-22T16:01:19;10.35;;;1.80;;
50363;SDS011;36272;59.400;17.982;2023-04-22T16:06:20;13.38;;;1.70;;
50363;SDS011;36272;59.400;17.982;2023-04-22T16:11:27;9.23;;;1.63;;
50363;SDS011;36272;59.400;17.982;2023-04-22T16:16:29;7.90;;;1.80;;
50363;SDS011;36272;59.400;17.982;2023-04-22T16:21:32;12.40;;;1.98;;
50363;SDS011;36272;59.400;17.982;2023-04-22T16:26:34;4.95;;;1.85;;
50363;SDS011;36272;59.400;17.982;2023-04-22T16:31:35;8.90;;;1.80;;
50363;SDS011;36272;59.400;17.982;2023-04-22T16:36:38;5.65;;;2.15;;
50363;SDS011;36272;59.400;17.982;2023-04-22T16:41:40;6.50;;;2.20;;
50363;SDS011;36272;59.400;17.982;2023-04-22T16:46:43;5.97;;;1.90;;
50363;SDS011;36272;59.400;17.982;2023-04-22T16:51:45;5.50;;;1.77;;
50363;SDS011;36272;59.400;17.982;2023-04-22T16:56:46;3.97;;;1.75;;
50363;SDS011;36272;59.400;17.982;2023-04-22T17:01:48;4.55;;;2.03;;
50363;SDS011;36272;59.400;17.982;2023-04-22T17:06:50;5.38;;;1.70;;
50363;SDS011;36272;59.400;17.982;2023-04-22T17:11:52;5.18;;;1.75;;
50363;SDS011;36272;59.400;17.982;2023-04-22T17:16:53;7.93;;;2.05;;
50363;SDS011;36272;59.400;17.982;2023-04-22T17:21:55;11.70;;;2.22;;
50363;SDS011;36272;59.400;17.982;2023-04-22T17:26:56;4.85;;;2.00;;
50363;SDS011;36272;59.400;17.982;2023-04-22T17:31:58;7.32;;;1.95;;
50363;SDS011;36272;59.400;17.982;2023-04-22T17:37:00;7.80;;;1.98;;
50363;SDS011;36272;59.400;17.982;2023-04-22T17:42:02;6.80;;;2.10;;
50363;SDS011;36272;59.400;17.982;2023-04-22T17:47:04;6.28;;;2.20;;
50363;SDS011;36272;59.400;17.982;2023-04-22T17:52:05;4.20;;;2.17;;
50363;SDS011;36272;59.400;17.982;2023-04-22T17:57:07;7.60;;;1.70;;
50363;SDS011;36272;59.400;17.982;2023-04-22T18:02:11;11.38;;;2.38;;
50363;SDS011;36272;59.400;17.982;2023-04-22T18:07:12;5.32;;;1.63;;
50363;SDS011;36272;59.400;17.982;2023-04-22T18:12:14;15.07;;;2.35;;
50363;SDS011;36272;59.400;17.982;2023-04-22T18:17:16;8.10;;;1.75;;
50363;SDS011;36272;59.400;17.982;2023-04-22T18:22:20;4.03;;;2.10;;
50363;SDS011;36272;59.400;17.982;2023-04-22T18:27:21;3.03;;;1.55;;
50363;SDS011;36272;59.400;17.982;2023-04-22T18:32:23;5.45;;;2.67;;
50363;SDS011;36272;59.400;17.982;2023-04-22T18:37:25;6.57;;;1.90;;
50363;SDS011;36272;59.400;17.982;2023-04-22T18:42:30;19.60;;;2.33;;
50363;SDS011;36272;59.400;17.982;2023-04-22T18:47:32;6.30;;;2.15;;
50363;SDS011;36272;59.400;17.982;2023-04-22T18:52:34;6.88;;;2.10;;
50363;SDS011;36272;59.400;17.982;2023-04-22T18:57:36;4.88;;;1.73;;
50363;SDS011;36272;59.400;17.982;2023-04-22T19:02:38;5.82;;;1.90;;
50363;SDS011;36272;59.400;17.982;2023-04-22T19:07:40;10.60;;;2.10;;
50363;SDS011;36272;59.400;17.982;2023-04-22T19:12:41;4.53;;;1.73;;
50363;SDS011;36272;59.400;17.982;2023-04-22T19:17:43;2.97;;;1.67;;
50363;SDS011;36272;59.400;17.982;2023-04-22T19:22:45;4.35;;;1.90;;
50363;SDS011;36272;59.400;17.982;2023-04-22T19:27:46;5.82;;;2.05;;
50363;SDS011;36272;59.400;17.982;2023-04-22T19:32:48;3.95;;;1.60;;
50363;SDS011;36272;59.400;17.982;2023-04-22T19:37:50;3.42;;;2.05;;
50363;SDS011;36272;59.400;17.982;2023-04-22T19:42:52;4.25;;;1.70;;
50363;SDS011;36272;59.400;17.982;2023-04-22T19:47:53;5.75;;;2.20;;
50363;SDS011;36272;59.400;17.982;2023-04-22T19:52:59;4.53;;;1.60;;
50363;SDS011;36272;59.400;17.982;2023-04-22T19:58:05;3.58;;;1.98;;
50363;SDS011;36272;59.400;17.982;2023-04-22T20:03:07;6.53;;;1.98;;
50363;SDS011;36272;59.400;17.982;2023-04-22T20:08:10;7.28;;;2.10;;
50363;SDS011;36272;59.400;17.982;2023-04-22T20:13:13;5.93;;;1.92;;
50363;SDS011;36272;59.400;17.982;2023-04-22T20:18:15;6.70;;;1.80;;
50363;SDS011;36272;59.400;17.982;2023-04-22T20:23:17;6.30;;;1.90;;
50363;SDS011;36272;59.400;17.982;2023-04-22T20:33:45;11.00;;;2.08;;
50363;SDS011;36272;59.400;17.982;2023-04-22T20:38:47;5.72;;;2.20;;
50363;SDS011;36272;59.400;17.982;2023-04-22T20:43:51;2.33;;;1.55;;
50363;SDS011;36272;59.400;17.982;2023-04-22T20:48:53;9.55;;;2.03;;
50363;SDS011;36272;59.400;17.982;2023-04-22T20:53:55;5.72;;;2.10;;
50363;SDS011;36272;59.400;17.982;2023-04-22T20:58:57;7.70;;;1.90;;
50363;SDS011;36272;59.400;17.982;2023-04-22T21:03:59;4.28;;;1.73;;
50363;SDS011;36272;59.400;17.982;2023-04-22T21:09:01;7.88;;;1.98;;
50363;SDS011;36272;59.400;17.982;2023-04-22T21:14:04;4.63;;;1.95;;
50363;SDS011;36272;59.400;17.982;2023-04-22T21:19:06;4.15;;;1.80;;
50363;SDS011;36272;59.400;17.982;2023-04-22T21:24:08;4.75;;;1.92;;
50363;SDS011;36272;59.400;17.982;2023-04-22T21:29:11;5.38;;;1.98;;
50363;SDS011;36272;59.400;17.982;2023-04-22T21:34:12;7.13;;;1.92;;
50363;SDS011;36272;59.400;17.982;2023-04-22T21:39:14;12.20;;;2.47;;
50363;SDS011;36272;59.400;17.982;2023-04-22T21:44:16;3.85;;;1.55;;
50363;SDS011;36272;59.400;17.982;2023-04-22T21:49:17;7.80;;;2.10;;
50363;SDS011;36272;59.400;17.982;2023-04-22T21:54:20;3.83;;;1.83;;
50363;SDS011;36272;59.400;17.982;2023-04-22T21:59:22;7.93;;;1.80;;
50363;SDS011;36272;59.400;17.982;2023-04-22T22:04:24;9.13;;;2.30;;
50363;SDS011;36272;59.400;17.982;2023-04-22T22:09:27;5.93;;;2.10;;
50363;SDS011;36272;59.400;17.982;2023-04-22T22:14:30;7.43;;;2.00;;
50363;SDS011;36272;59.400;17.982;2023-04-22T22:19:31;7.03;;;2.30;;
50363;SDS011;36272;59.400;17.982;2023-04-22T22:24:34;22.02;;;2.50;;
50363;SDS011;36272;59.400;17.982;2023-04-22T22:29:35;6.40;;;2.20;;
50363;SDS011;36272;59.400;17.982;2023-04-22T22:34:40;12.33;;;1.93;;
50363;SDS011;36272;59.400;17.982;2023-04-22T22:39:43;13.85;;;2.13;;
50363;SDS011;36272;59.400;17.982;2023-04-22T22:44:45;12.90;;;2.00;;
50363;SDS011;36272;59.400;17.982;2023-04-22T22:49:47;17.30;;;2.45;;
50363;SDS011;36272;59.400;17.982;2023-04-22T22:54:49;14.85;;;2.50;;
50363;SDS011;36272;59.400;17.982;2023-04-22T22:59:50;7.35;;;2.13;;
50363;SDS011;36272;59.400;17.982;2023-04-22T23:04:52;14.38;;;2.30;;
50363;SDS011;36272;59.400;17.982;2023-04-22T23:09:54;8.35;;;1.92;;
50363;SDS011;36272;59.400;17.982;2023-04-22T23:14:55;7.72;;;2.03;;
50363;SDS011;36272;59.400;17.982;2023-04-22T23:19:57;6.82;;;2.10;;
50363;SDS011;36272;59.400;17.982;2023-04-22T23:25:01;5.18;;;1.88;;
50363;SDS011;36272;59.400;17.982;2023-04-22T23:30:03;10.32;;;2.30;;
50363;SDS011;36272;59.400;17.982;2023-04-22T23:35:06;7.32;;;1.92;;
50363;SDS011;36272;59.400;17.982;2023-04-22T23:40:09;5.75;;;2.17;;
50363;SDS011;36272;59.400;17.982;2023-04-22T23:45:11;8.73;;;2.20;;
50363;SDS011;36272;59.400;17.982;2023-04-22T23:50:13;5.85;;;2.15;;
50363;SDS011;36272;59.400;17.982;2023-04-22T23:55:16;5.97;;;1.95;;
